Latest Weather Observations for Lord Howe Island Windy Point

IDN60801

Issued at 3:03 pm EST Tuesday 27 September 2016 (issued every 30 minutes, with the page automatically refreshed every 10 minutes)

About weather observations | Map of weather stations | Latest weather observations for NSW | Other Formats
Station Details ID: 200715 Name: LORD HOWE ISLAND WINDY POINT Lat: -31.54 Lon: 159.07 Height: 4.0 m
Data from the previous 72 hours. | See also: Recent months for locations in New South Wales
Date/Time
EST
Temp
°C
App
Temp
°C
Dew
Point
°C
Rel
Hum
%
Delta-T
°C
Wind Press
QNH
hPa
Press
MSL
hPa
Rain since
9am
mm
Dir  Spd
km/h
Gust
km/h
Spd
kts
Gust
kts
27/03:00pm - - - - - WSW 28 33 15 18 - - -
27/02:30pm - - - - - WSW 32 37 17 20 - - -
27/02:00pm - - - - - WSW 30 37 16 20 - - -
27/01:30pm - - - - - W 28 32 15 17 - - -
27/01:00pm - - - - - WSW 28 32 15 17 - - -
27/12:30pm - - - - - W 28 33 15 18 - - -
27/12:00pm - - - - - WSW 28 35 15 19 - - -
27/11:30am - - - - - WSW 28 39 15 21 - - -
27/11:00am - - - - - WSW 26 32 14 17 - - -
27/10:30am - - - - - SW 28 32 15 17 - - -
27/10:00am - - - - - SW 28 32 15 17 - - -
27/09:30am - - - - - SW 35 41 19 22 - - -
27/09:00am - - - - - SW 32 37 17 20 - - -
27/08:30am - - - - - SW 33 39 18 21 - - -
27/08:00am - - - - - SW 44 54 24 29 - - -
27/07:30am - - - - - WSW 37 46 20 25 - - -
27/07:00am - - - - - WSW 37 44 20 24 - - -
27/06:30am - - - - - WSW 37 44 20 24 - - -
27/06:00am - - - - - WSW 37 44 20 24 - - -
27/05:30am - - - - - WSW 37 43 20 23 - - -
27/05:00am - - - - - WSW 35 44 19 24 - - -
27/04:30am - - - - - WSW 35 41 19 22 - - -
27/04:00am - - - - - WSW 39 46 21 25 - - -
27/03:30am - - - - - WSW 37 44 20 24 - - -
27/03:00am - - - - - SW 37 44 20 24 - - -
27/02:30am - - - - - SW 39 48 21 26 - - -
27/02:00am - - - - - WSW 41 46 22 25 - - -
27/01:30am - - - - - SW 43 50 23 27 - - -
27/01:00am - - - - - SW 41 50 22 27 - - -
27/12:30am - - - - - SW 41 48 22 26 - - -
27/12:00am - - - - - SW 41 48 22 26 - - -
 
Date/Time
EST
Temp
°C
App
Temp
°C
Dew
Point
°C
Rel
Hum
%
Delta-T
°C
Wind Press
QNH
hPa
Press
MSL
hPa
Rain since
9am
mm
Dir  Spd
km/h
Gust
km/h
Spd
kts
Gust
kts
26/11:30pm - - - - - SW 41 46 22 25 - - -
26/11:00pm - - - - - SW 41 48 22 26 - - -
26/10:30pm - - - - - SW 37 43 20 23 - - -
26/10:00pm - - - - - SW 37 44 20 24 - - -
26/09:30pm - - - - - SW 37 46 20 25 - - -
26/09:00pm - - - - - SW 35 43 19 23 - - -
26/08:30pm - - - - - SW 39 46 21 25 - - -
26/08:00pm - - - - - SW 37 46 20 25 - - -
26/07:30pm - - - - - SW 37 46 20 25 - - -
26/07:00pm - - - - - SW 39 46 21 25 - - -
26/06:30pm - - - - - SW 43 52 23 28 - - -
26/06:00pm - - - - - SW 44 52 24 28 - - -
26/05:30pm - - - - - SW 43 52 23 28 - - -
26/05:00pm - - - - - SW 43 52 23 28 - - -
26/04:30pm - - - - - SSW 44 52 24 28 - - -
26/04:00pm - - - - - SW 43 50 23 27 - - -
26/03:30pm - - - - - SW 44 54 24 29 - - -
26/03:00pm - - - - - SW 44 52 24 28 - - -
26/02:30pm - - - - - SW 43 50 23 27 - - -
26/02:00pm - - - - - SSW 44 54 24 29 - - -
26/01:30pm - - - - - SW 50 59 27 32 - - -
26/01:00pm - - - - - SSW 46 59 25 32 - - -
26/12:30pm - - - - - SSW 48 56 26 30 - - -
26/12:00pm - - - - - SW 46 56 25 30 - - -
26/11:46am - - - - - SSW 46 65 25 35 - - -
26/11:30am - - - - - SSW 48 56 26 30 - - -
26/11:00am - - - - - SSW 48 57 26 31 - - -
26/10:30am - - - - - SSW 50 61 27 33 - - -
26/10:00am - - - - - SSW 52 63 28 34 - - -
26/09:30am - - - - - SSW 48 59 26 32 - - -
26/09:00am - - - - - SSW 50 61 27 33 - - -
26/08:33am - - - - - SW 46 69 25 37 - - -
26/08:30am - - - - - SW 46 57 25 31 - - -
26/08:10am - - - - - SW 44 63 24 34 - - -
26/08:00am - - - - - SSW 46 57 25 31 - - -
26/07:30am - - - - - SW 46 54 25 29 - - -
26/07:16am - - - - - SW 43 61 23 33 - - -
26/07:00am - - - - - SW 46 56 25 30 - - -
26/06:30am - - - - - SW 41 52 22 28 - - -
26/06:00am - - - - - SW 44 56 24 30 - - -
26/05:30am - - - - - SW 46 57 25 31 - - -
26/05:00am - - - - - SW 39 46 21 25 - - -
26/04:30am - - - - - SSW 35 46 19 25 - - -
26/04:00am - - - - - SW 39 48 21 26 - - -
26/03:30am - - - - - SW 39 46 21 25 - - -
26/03:00am - - - - - SW 43 52 23 28 - - -
26/02:30am - - - - - SW 37 50 20 27 - - -
26/02:24am - - - - - WSW 32 50 17 27 - - -
26/02:00am - - - - - WSW 32 35 17 19 - - -
26/01:30am - - - - - WSW 32 35 17 19 - - -
26/01:00am - - - - - WSW 26 33 14 18 - - -
26/12:30am - - - - - WSW 19 24 10 13 - - -
26/12:00am - - - - - W 15 17 8 9 - - -
 
Date/Time
EST
Temp
°C
App
Temp
°C
Dew
Point
°C
Rel
Hum
%
Delta-T
°C
Wind Press
QNH
hPa
Press
MSL
hPa
Rain since
9am
mm
Dir  Spd
km/h
Gust
km/h
Spd
kts
Gust
kts
25/11:30pm - - - - - W 11 15 6 8 - - -
25/11:00pm - - - - - W 15 19 8 10 - - -
25/10:30pm - - - - - W 22 26 12 14 - - -
25/10:00pm - - - - - WNW 20 26 11 14 - - -
25/09:30pm - - - - - CALM 0 6 0 3 - - -
25/09:00pm - - - - - CALM 0 0 0 0 - - -
25/08:30pm - - - - - CALM 0 0 0 0 - - -
25/08:00pm - - - - - CALM 0 0 0 0 - - -
25/07:30pm - - - - - E 2 6 1 3 - - -
25/07:00pm - - - - - CALM 0 0 0 0 - - -
25/06:30pm - - - - - CALM 0 6 0 3 - - -
25/06:00pm - - - - - N 9 13 5 7 - - -
25/05:30pm - - - - - NNW 17 22 9 12 - - -
25/05:14pm - - - - - NW 20 39 11 21 - - -
25/05:00pm - - - - - NW 11 20 6 11 - - -
25/04:30pm - - - - - NNE 9 17 5 9 - - -
25/04:00pm - - - - - NE 11 17 6 9 - - -
25/03:30pm - - - - - NE 7 13 4 7 - - -
25/03:00pm - - - - - NW 6 11 3 6 - - -
25/02:30pm - - - - - NW 13 19 7 10 - - -
25/02:00pm - - - - - NNW 9 15 5 8 - - -
25/01:30pm - - - - - NW 13 20 7 11 - - -
25/01:00pm - - - - - NW 13 24 7 13 - - -
25/12:30pm - - - - - NW 11 20 6 11 - - -
25/12:00pm - - - - - NW 13 20 7 11 - - -
25/11:30am - - - - - NW 9 15 5 8 - - -
25/11:00am - - - - - NW 15 20 8 11 - - -
25/10:30am - - - - - WNW 13 19 7 10 - - -
25/10:00am - - - - - W 11 15 6 8 - - -
25/09:30am - - - - - NW 11 13 6 7 - - -
25/09:00am - - - - - WNW 13 17 7 9 - - -
25/08:30am - - - - - WSW 9 11 5 6 - - -
25/08:00am - - - - - WNW 6 9 3 5 - - -
25/07:30am - - - - - CALM 0 6 0 3 - - -
25/07:00am - - - - - CALM 0 7 0 4 - - -
25/06:30am - - - - - CALM 0 0 0 0 - - -
25/06:00am - - - - - CALM 0 0 0 0 - - -
25/05:30am - - - - - CALM 0 0 0 0 - - -
25/05:00am - - - - - CALM 0 0 0 0 - - -
25/04:30am - - - - - CALM 0 0 0 0 - - -
25/04:00am - - - - - CALM 0 0 0 0 - - -
25/03:30am - - - - - CALM 0 4 0 2 - - -
25/03:00am - - - - - CALM 0 0 0 0 - - -
25/02:30am - - - - - CALM 0 0 0 0 - - -
25/02:00am - - - - - CALM 0 0 0 0 - - -
25/01:30am - - - - - E 6 6 3 3 - - -
25/01:00am - - - - - E 6 7 3 4 - - -
25/12:30am - - - - - SSE 4 9 2 5 - - -
25/12:00am - - - - - S 9 19 5 10 - - -
 
Date/Time
EST
Temp
°C
App
Temp
°C
Dew
Point
°C
Rel
Hum
%
Delta-T
°C
Wind Press
QNH
hPa
Press
MSL
hPa
Rain since
9am
mm
Dir  Spd
km/h
Gust
km/h
Spd
kts
Gust
kts
24/11:30pm - - - - - SSW 15 19 8 10 - - -
24/11:00pm - - - - - SSW 17 20 9 11 - - -
24/10:30pm - - - - - SSW 17 20 9 11 - - -
24/10:00pm - - - - - SW 17 20 9 11 - - -
24/09:30pm - - - - - SSW 17 20 9 11 - - -
24/09:00pm - - - - - SSW 17 20 9 11 - - -
24/08:30pm - - - - - SSW 15 19 8 10 - - -
24/08:00pm - - - - - SW 17 20 9 11 - - -
24/07:30pm - - - - - SSW 17 20 9 11 - - -
24/07:00pm - - - - - SSW 19 22 10 12 - - -
24/06:30pm - - - - - SSW 20 26 11 14 - - -
24/06:00pm - - - - - SSW 22 26 12 14 - - -
24/05:30pm - - - - - SSW 24 26 13 14 - - -
24/05:00pm - - - - - SSW 22 26 12 14 - - -
24/04:30pm - - - - - SSW 24 30 13 16 - - -
24/04:00pm - - - - - SSW 24 28 13 15 - - -
24/03:30pm - - - - - SSW 26 32 14 17 - - -

Other Formats:

Comma delimited format used in spreadsheet applications
http://www.bom.gov.au/fwo/IDN60801/IDN60801.95995.axf

JavaScript Object Notation format (JSON) in row-major order
http://www.bom.gov.au/fwo/IDN60801/IDN60801.95995.json